sensor_id;sensor_type;location;lat;lon;timestamp;temperature;humidity
1447;DHT22;717;51.522;7.266;2023-04-25T00:00:17;10.30;99.90
1447;DHT22;717;51.522;7.266;2023-04-25T00:02:48;10.30;99.90
1447;DHT22;717;51.522;7.266;2023-04-25T00:05:17;10.30;99.90
1447;DHT22;717;51.522;7.266;2023-04-25T00:07:46;10.30;99.90
1447;DHT22;717;51.522;7.266;2023-04-25T00:10:14;10.20;99.90
1447;DHT22;717;51.522;7.266;2023-04-25T00:12:43;10.30;99.90
1447;DHT22;717;51.522;7.266;2023-04-25T00:15:12;10.40;99.90
1447;DHT22;717;51.522;7.266;2023-04-25T00:17:41;10.50;99.90
1447;DHT22;717;51.522;7.266;2023-04-25T00:20:14;10.50;99.90
1447;DHT22;717;51.522;7.266;2023-04-25T00:22:42;10.60;99.90
1447;DHT22;717;51.522;7.266;2023-04-25T00:25:11;10.60;99.90
1447;DHT22;717;51.522;7.266;2023-04-25T00:27:40;10.50;99.90
1447;DHT22;717;51.522;7.266;2023-04-25T00:30:09;10.40;99.90
1447;DHT22;717;51.522;7.266;2023-04-25T00:32:38;10.50;99.90
1447;DHT22;717;51.522;7.266;2023-04-25T00:35:08;10.60;99.90
1447;DHT22;717;51.522;7.266;2023-04-25T00:37:39;10.70;99.90
1447;DHT22;717;51.522;7.266;2023-04-25T00:40:09;10.80;99.90
1447;DHT22;717;51.522;7.266;2023-04-25T00:42:38;10.80;99.90
1447;DHT22;717;51.522;7.266;2023-04-25T00:45:07;10.90;99.90
1447;DHT22;717;51.522;7.266;2023-04-25T00:47:37;10.90;99.90
1447;DHT22;717;51.522;7.266;2023-04-25T00:50:07;10.90;99.90
1447;DHT22;717;51.522;7.266;2023-04-25T00:52:40;11.00;99.90
1447;DHT22;717;51.522;7.266;2023-04-25T00:55:10;10.90;99.90
1447;DHT22;717;51.522;7.266;2023-04-25T00:57:39;11.00;99.90
1447;DHT22;717;51.522;7.266;2023-04-25T01:00:10;10.90;99.90
1447;DHT22;717;51.522;7.266;2023-04-25T01:02:39;10.90;99.90
1447;DHT22;717;51.522;7.266;2023-04-25T01:05:08;10.90;99.90
1447;DHT22;717;51.522;7.266;2023-04-25T01:07:40;10.90;99.90
1447;DHT22;717;51.522;7.266;2023-04-25T01:10:09;10.70;99.90
1447;DHT22;717;51.522;7.266;2023-04-25T01:12:37;10.60;99.90
1447;DHT22;717;51.522;7.266;2023-04-25T01:15:07;10.60;99.90
1447;DHT22;717;51.522;7.266;2023-04-25T01:17:35;10.70;99.90
1447;DHT22;717;51.522;7.266;2023-04-25T01:20:06;10.80;99.90
1447;DHT22;717;51.522;7.266;2023-04-25T01:22:37;10.90;99.90
1447;DHT22;717;51.522;7.266;2023-04-25T01:25:07;11.00;99.90
1447;DHT22;717;51.522;7.266;2023-04-25T01:27:36;11.00;99.90
1447;DHT22;717;51.522;7.266;2023-04-25T01:30:06;10.90;99.90
1447;DHT22;717;51.522;7.266;2023-04-25T01:32:35;10.80;99.90
1447;DHT22;717;51.522;7.266;2023-04-25T01:35:08;10.80;99.90
1447;DHT22;717;51.522;7.266;2023-04-25T01:37:40;10.90;99.90
1447;DHT22;717;51.522;7.266;2023-04-25T01:40:10;11.00;99.90
1447;DHT22;717;51.522;7.266;2023-04-25T01:42:41;10.90;99.90
1447;DHT22;717;51.522;7.266;2023-04-25T01:45:11;11.00;99.90
1447;DHT22;717;51.522;7.266;2023-04-25T01:47:40;11.00;99.90
1447;DHT22;717;51.522;7.266;2023-04-25T01:50:10;11.10;99.90
1447;DHT22;717;51.522;7.266;2023-04-25T01:52:42;11.30;99.90
1447;DHT22;717;51.522;7.266;2023-04-25T01:55:11;11.30;99.90
1447;DHT22;717;51.522;7.266;2023-04-25T01:57:40;11.40;99.90
1447;DHT22;717;51.522;7.266;2023-04-25T02:00:10;11.40;99.90
1447;DHT22;717;51.522;7.266;2023-04-25T02:02:39;11.40;99.90
1447;DHT22;717;51.522;7.266;2023-04-25T02:05:08;11.30;99.90
1447;DHT22;717;51.522;7.266;2023-04-25T02:07:37;11.20;99.90
1447;DHT22;717;51.522;7.266;2023-04-25T02:10:09;11.00;99.90
1447;DHT22;717;51.522;7.266;2023-04-25T02:12:38;10.90;99.90
1447;DHT22;717;51.522;7.266;2023-04-25T02:15:07;10.90;99.90
1447;DHT22;717;51.522;7.266;2023-04-25T02:17:36;10.80;99.90
1447;DHT22;717;51.522;7.266;2023-04-25T02:20:06;10.70;99.90
1447;DHT22;717;51.522;7.266;2023-04-25T02:22:35;10.60;99.90
1447;DHT22;717;51.522;7.266;2023-04-25T02:25:05;10.60;99.90
1447;DHT22;717;51.522;7.266;2023-04-25T02:27:37;10.60;99.90
1447;DHT22;717;51.522;7.266;2023-04-25T02:30:07;10.70;99.90
1447;DHT22;717;51.522;7.266;2023-04-25T02:32:35;10.70;99.90
1447;DHT22;717;51.522;7.266;2023-04-25T02:35:05;10.70;99.90
1447;DHT22;717;51.522;7.266;2023-04-25T02:37:35;10.80;99.90
1447;DHT22;717;51.522;7.266;2023-04-25T02:40:05;10.90;99.90
1447;DHT22;717;51.522;7.266;2023-04-25T02:42:36;10.80;99.90
1447;DHT22;717;51.522;7.266;2023-04-25T02:45:06;10.80;99.90
1447;DHT22;717;51.522;7.266;2023-04-25T02:47:35;10.60;99.90
1447;DHT22;717;51.522;7.266;2023-04-25T02:50:05;10.60;99.90
1447;DHT22;717;51.522;7.266;2023-04-25T02:52:33;10.60;99.90
1447;DHT22;717;51.522;7.266;2023-04-25T02:55:02;10.50;99.90
1447;DHT22;717;51.522;7.266;2023-04-25T02:57:31;10.50;99.90
1447;DHT22;717;51.522;7.266;2023-04-25T03:00:03;10.60;99.90
1447;DHT22;717;51.522;7.266;2023-04-25T03:02:33;10.80;99.90
1447;DHT22;717;51.522;7.266;2023-04-25T03:05:01;10.90;99.90
1447;DHT22;717;51.522;7.266;2023-04-25T03:07:30;10.90;99.90
1447;DHT22;717;51.522;7.266;2023-04-25T03:09:58;10.90;99.90
1447;DHT22;717;51.522;7.266;2023-04-25T03:12:28;10.80;99.90
1447;DHT22;717;51.522;7.266;2023-04-25T03:14:56;10.70;99.90
1447;DHT22;717;51.522;7.266;2023-04-25T03:17:28;10.80;99.90
1447;DHT22;717;51.522;7.266;2023-04-25T03:19:57;10.90;99.90
1447;DHT22;717;51.522;7.266;2023-04-25T03:22:26;11.00;99.90
1447;DHT22;717;51.522;7.266;2023-04-25T03:24:54;11.10;99.90
1447;DHT22;717;51.522;7.266;2023-04-25T03:27:23;11.10;99.90
1447;DHT22;717;51.522;7.266;2023-04-25T03:29:52;11.10;99.90
1447;DHT22;717;51.522;7.266;2023-04-25T03:32:20;11.20;99.90
1447;DHT22;717;51.522;7.266;2023-04-25T03:34:51;11.10;99.90
1447;DHT22;717;51.522;7.266;2023-04-25T03:37:20;11.10;99.90
1447;DHT22;717;51.522;7.266;2023-04-25T03:39:49;11.10;99.90
1447;DHT22;717;51.522;7.266;2023-04-25T03:42:17;11.10;99.90
1447;DHT22;717;51.522;7.266;2023-04-25T03:44:48;11.20;99.90
1447;DHT22;717;51.522;7.266;2023-04-25T03:47:17;11.30;99.90
1447;DHT22;717;51.522;7.266;2023-04-25T03:49:45;11.30;99.90
1447;DHT22;717;51.522;7.266;2023-04-25T03:52:19;11.30;99.90
1447;DHT22;717;51.522;7.266;2023-04-25T03:54:48;11.20;99.90
1447;DHT22;717;51.522;7.266;2023-04-25T03:57:17;11.10;99.90
1447;DHT22;717;51.522;7.266;2023-04-25T03:59:45;11.00;99.90
1447;DHT22;717;51.522;7.266;2023-04-25T04:02:14;11.00;99.90
1447;DHT22;717;51.522;7.266;2023-04-25T04:04:42;10.90;99.90
1447;DHT22;717;51.522;7.266;2023-04-25T04:07:11;10.70;99.90
1447;DHT22;717;51.522;7.266;2023-04-25T04:09:43;10.70;99.90
1447;DHT22;717;51.522;7.266;2023-04-25T04:12:11;10.60;99.90
1447;DHT22;717;51.522;7.266;2023-04-25T04:14:40;10.60;99.90
1447;DHT22;717;51.522;7.266;2023-04-25T04:17:09;10.60;99.90
1447;DHT22;717;51.522;7.266;2023-04-25T04:19:37;10.70;99.90
1447;DHT22;717;51.522;7.266;2023-04-25T04:22:06;10.80;99.90
1447;DHT22;717;51.522;7.266;2023-04-25T04:24:35;10.80;99.90
1447;DHT22;717;51.522;7.266;2023-04-25T04:27:06;10.80;99.90
1447;DHT22;717;51.522;7.266;2023-04-25T04:29:36;10.90;99.90
1447;DHT22;717;51.522;7.266;2023-04-25T04:32:05;10.90;99.90
1447;DHT22;717;51.522;7.266;2023-04-25T04:34:34;11.00;99.90
1447;DHT22;717;51.522;7.266;2023-04-25T04:37:03;11.00;99.90
1447;DHT22;717;51.522;7.266;2023-04-25T04:39:32;11.00;99.90
1447;DHT22;717;51.522;7.266;2023-04-25T04:42:01;11.10;99.90
1447;DHT22;717;51.522;7.266;2023-04-25T04:44:33;11.10;99.90
1447;DHT22;717;51.522;7.266;2023-04-25T04:47:02;11.20;99.90
1447;DHT22;717;51.522;7.266;2023-04-25T04:49:31;11.30;99.90
1447;DHT22;717;51.522;7.266;2023-04-25T04:52:00;11.30;99.90
1447;DHT22;717;51.522;7.266;2023-04-25T04:54:29;11.30;99.90
1447;DHT22;717;51.522;7.266;2023-04-25T04:56:57;11.30;99.90
1447;DHT22;717;51.522;7.266;2023-04-25T04:59:26;11.20;99.90
1447;DHT22;717;51.522;7.266;2023-04-25T05:01:57;11.20;99.90
1447;DHT22;717;51.522;7.266;2023-04-25T05:04:26;11.10;99.90
1447;DHT22;717;51.522;7.266;2023-04-25T05:06:54;11.10;99.90
1447;DHT22;717;51.522;7.266;2023-04-25T05:09:23;11.10;99.90
1447;DHT22;717;51.522;7.266;2023-04-25T05:11:52;11.10;99.90
1447;DHT22;717;51.522;7.266;2023-04-25T05:14:21;11.10;99.90
1447;DHT22;717;51.522;7.266;2023-04-25T05:16:50;11.10;99.90
1447;DHT22;717;51.522;7.266;2023-04-25T05:19:21;11.10;99.90
1447;DHT22;717;51.522;7.266;2023-04-25T05:21:50;11.10;99.90
1447;DHT22;717;51.522;7.266;2023-04-25T05:24:18;11.20;99.90
1447;DHT22;717;51.522;7.266;2023-04-25T05:26:47;11.20;99.90
1447;DHT22;717;51.522;7.266;2023-04-25T05:29:16;11.30;99.90
1447;DHT22;717;51.522;7.266;2023-04-25T05:31:44;11.30;99.90
1447;DHT22;717;51.522;7.266;2023-04-25T05:34:13;11.30;99.90
1447;DHT22;717;51.522;7.266;2023-04-25T05:36:45;11.30;99.90
1447;DHT22;717;51.522;7.266;2023-04-25T05:39:15;11.30;99.90
1447;DHT22;717;51.522;7.266;2023-04-25T05:41:44;11.20;99.90
1447;DHT22;717;51.522;7.266;2023-04-25T05:44:13;11.10;99.90
1447;DHT22;717;51.522;7.266;2023-04-25T05:46:41;11.10;99.90
1447;DHT22;717;51.522;7.266;2023-04-25T05:49:10;11.20;99.90
1447;DHT22;717;51.522;7.266;2023-04-25T05:51:38;11.20;99.90
1447;DHT22;717;51.522;7.266;2023-04-25T05:54:09;11.30;99.90
1447;DHT22;717;51.522;7.266;2023-04-25T05:56:38;11.30;99.90
1447;DHT22;717;51.522;7.266;2023-04-25T05:59:06;11.10;99.90
1447;DHT22;717;51.522;7.266;2023-04-25T06:01:35;11.10;99.90
1447;DHT22;717;51.522;7.266;2023-04-25T06:04:03;11.20;99.90
1447;DHT22;717;51.522;7.266;2023-04-25T06:06:32;11.20;99.90
1447;DHT22;717;51.522;7.266;2023-04-25T06:09:01;11.10;99.90
1447;DHT22;717;51.522;7.266;2023-04-25T06:11:32;11.10;99.90
1447;DHT22;717;51.522;7.266;2023-04-25T06:14:00;11.10;99.90
1447;DHT22;717;51.522;7.266;2023-04-25T06:16:29;11.30;99.90
1447;DHT22;717;51.522;7.266;2023-04-25T06:18:57;11.40;99.90
1447;DHT22;717;51.522;7.266;2023-04-25T06:21:26;11.40;99.90
1447;DHT22;717;51.522;7.266;2023-04-25T06:23:54;11.40;99.90
1447;DHT22;717;51.522;7.266;2023-04-25T06:26:23;11.50;99.90
1447;DHT22;717;51.522;7.266;2023-04-25T06:28:54;11.50;99.90
1447;DHT22;717;51.522;7.266;2023-04-25T06:31:22;11.50;99.90
1447;DHT22;717;51.522;7.266;2023-04-25T06:33:51;11.50;99.90
1447;DHT22;717;51.522;7.266;2023-04-25T06:36:20;11.60;99.90
1447;DHT22;717;51.522;7.266;2023-04-25T06:38:50;11.60;99.90
1447;DHT22;717;51.522;7.266;2023-04-25T06:41:19;11.60;99.90
1447;DHT22;717;51.522;7.266;2023-04-25T06:43:47;11.70;99.90
1447;DHT22;717;51.522;7.266;2023-04-25T06:46:19;11.80;99.90
1447;DHT22;717;51.522;7.266;2023-04-25T06:48:47;11.80;99.90
1447;DHT22;717;51.522;7.266;2023-04-25T06:51:16;11.90;99.90
1447;DHT22;717;51.522;7.266;2023-04-25T06:53:45;12.00;99.90
1447;DHT22;717;51.522;7.266;2023-04-25T06:56:13;12.10;99.90
1447;DHT22;717;51.522;7.266;2023-04-25T06:58:42;12.10;99.90
1447;DHT22;717;51.522;7.266;2023-04-25T07:01:10;12.20;99.90
1447;DHT22;717;51.522;7.266;2023-04-25T07:03:41;12.20;99.90
1447;DHT22;717;51.522;7.266;2023-04-25T07:06:10;12.20;99.90
1447;DHT22;717;51.522;7.266;2023-04-25T07:08:38;12.20;99.90
1447;DHT22;717;51.522;7.266;2023-04-25T07:11:07;12.10;99.90
1447;DHT22;717;51.522;7.266;2023-04-25T07:13:35;12.10;99.90
1447;DHT22;717;51.522;7.266;2023-04-25T07:16:05;12.10;99.90
1447;DHT22;717;51.522;7.266;2023-04-25T07:18:33;12.10;99.90
1447;DHT22;717;51.522;7.266;2023-04-25T07:21:05;12.20;99.90
1447;DHT22;717;51.522;7.266;2023-04-25T07:23:33;12.20;99.90
1447;DHT22;717;51.522;7.266;2023-04-25T07:26:03;12.20;99.90
1447;DHT22;717;51.522;7.266;2023-04-25T07:28:31;12.30;99.90
1447;DHT22;717;51.522;7.266;2023-04-25T07:31:00;12.30;99.90
1447;DHT22;717;51.522;7.266;2023-04-25T07:33:29;12.30;99.90
1447;DHT22;717;51.522;7.266;2023-04-25T07:35:57;12.30;99.90
1447;DHT22;717;51.522;7.266;2023-04-25T07:38:29;12.30;99.90
1447;DHT22;717;51.522;7.266;2023-04-25T07:40:57;12.30;99.90
1447;DHT22;717;51.522;7.266;2023-04-25T07:43:26;12.40;99.90
1447;DHT22;717;51.522;7.266;2023-04-25T07:45:55;12.50;99.90
1447;DHT22;717;51.522;7.266;2023-04-25T07:48:24;12.40;99.90
1447;DHT22;717;51.522;7.266;2023-04-25T07:50:52;12.40;99.90
1447;DHT22;717;51.522;7.266;2023-04-25T07:53:21;12.40;99.90
1447;DHT22;717;51.522;7.266;2023-04-25T07:55:52;12.40;99.90
1447;DHT22;717;51.522;7.266;2023-04-25T07:58:21;12.40;99.90
1447;DHT22;717;51.522;7.266;2023-04-25T08:00:50;12.40;99.90
1447;DHT22;717;51.522;7.266;2023-04-25T08:03:18;12.40;99.90
1447;DHT22;717;51.522;7.266;2023-04-25T08:05:47;12.40;99.90
1447;DHT22;717;51.522;7.266;2023-04-25T08:08:15;12.40;99.90
1447;DHT22;717;51.522;7.266;2023-04-25T08:10:44;12.50;99.90
1447;DHT22;717;51.522;7.266;2023-04-25T08:13:16;12.40;99.90
1447;DHT22;717;51.522;7.266;2023-04-25T08:15:44;12.40;99.90
1447;DHT22;717;51.522;7.266;2023-04-25T08:18:13;12.50;99.90
1447;DHT22;717;51.522;7.266;2023-04-25T08:20:41;12.50;99.90
1447;DHT22;717;51.522;7.266;2023-04-25T08:23:10;12.50;99.90
1447;DHT22;717;51.522;7.266;2023-04-25T08:25:39;12.60;99.90
1447;DHT22;717;51.522;7.266;2023-04-25T08:28:07;12.50;99.90
1447;DHT22;717;51.522;7.266;2023-04-25T08:30:38;12.60;99.90
1447;DHT22;717;51.522;7.266;2023-04-25T08:33:07;12.60;99.90
1447;DHT22;717;51.522;7.266;2023-04-25T08:35:36;12.80;99.90
1447;DHT22;717;51.522;7.266;2023-04-25T08:38:04;12.70;99.90
1447;DHT22;717;51.522;7.266;2023-04-25T08:40:37;12.80;99.90
1447;DHT22;717;51.522;7.266;2023-04-25T08:43:06;12.80;99.90
1447;DHT22;717;51.522;7.266;2023-04-25T08:45:40;12.80;99.90
1447;DHT22;717;51.522;7.266;2023-04-25T08:48:12;12.70;99.90
1447;DHT22;717;51.522;7.266;2023-04-25T08:50:45;12.80;99.90
1447;DHT22;717;51.522;7.266;2023-04-25T08:53:18;12.70;99.90
1447;DHT22;717;51.522;7.266;2023-04-25T08:55:49;12.70;99.90
1447;DHT22;717;51.522;7.266;2023-04-25T08:58:18;12.80;99.90
1447;DHT22;717;51.522;7.266;2023-04-25T09:00:51;12.70;99.90
1447;DHT22;717;51.522;7.266;2023-04-25T09:03:20;12.80;99.90
1447;DHT22;717;51.522;7.266;2023-04-25T09:05:49;12.90;99.90
1447;DHT22;717;51.522;7.266;2023-04-25T09:08:18;12.90;99.90
1447;DHT22;717;51.522;7.266;2023-04-25T09:10:46;12.90;99.90
1447;DHT22;717;51.522;7.266;2023-04-25T09:13:24;13.00;99.90
1447;DHT22;717;51.522;7.266;2023-04-25T09:15:56;13.00;99.90
1447;DHT22;717;51.522;7.266;2023-04-25T09:18:26;13.20;99.90
1447;DHT22;717;51.522;7.266;2023-04-25T09:20:56;13.30;99.90
1447;DHT22;717;51.522;7.266;2023-04-25T09:23:25;13.40;99.90
1447;DHT22;717;51.522;7.266;2023-04-25T09:25:53;13.50;99.90
1447;DHT22;717;51.522;7.266;2023-04-25T09:28:26;13.50;99.90
1447;DHT22;717;51.522;7.266;2023-04-25T09:30:57;13.50;99.90
1447;DHT22;717;51.522;7.266;2023-04-25T09:33:30;13.50;99.90
1447;DHT22;717;51.522;7.266;2023-04-25T09:36:05;13.50;99.90
1447;DHT22;717;51.522;7.266;2023-04-25T09:38:41;13.50;99.90
1447;DHT22;717;51.522;7.266;2023-04-25T09:41:11;13.50;99.90
1447;DHT22;717;51.522;7.266;2023-04-25T09:43:39;13.60;99.90
1447;DHT22;717;51.522;7.266;2023-04-25T09:46:11;13.60;99.90
1447;DHT22;717;51.522;7.266;2023-04-25T09:48:39;13.60;99.90
1447;DHT22;717;51.522;7.266;2023-04-25T09:51:09;13.60;99.90
1447;DHT22;717;51.522;7.266;2023-04-25T09:53:41;13.60;99.90
1447;DHT22;717;51.522;7.266;2023-04-25T09:56:11;13.70;99.90
1447;DHT22;717;51.522;7.266;2023-04-25T09:58:41;13.70;99.90
1447;DHT22;717;51.522;7.266;2023-04-25T10:01:12;13.80;99.90
1447;DHT22;717;51.522;7.266;2023-04-25T10:03:40;13.80;99.90
1447;DHT22;717;51.522;7.266;2023-04-25T10:06:12;13.90;99.90
1447;DHT22;717;51.522;7.266;2023-04-25T10:08:42;14.30;99.90
1447;DHT22;717;51.522;7.266;2023-04-25T10:11:11;14.80;99.90
1447;DHT22;717;51.522;7.266;2023-04-25T10:13:41;15.00;99.90
1447;DHT22;717;51.522;7.266;2023-04-25T10:16:13;14.90;99.90
1447;DHT22;717;51.522;7.266;2023-04-25T10:18:42;14.80;99.90
1447;DHT22;717;51.522;7.266;2023-04-25T10:21:11;14.70;99.90
1447;DHT22;717;51.522;7.266;2023-04-25T10:23:40;14.70;99.90
1447;DHT22;717;51.522;7.266;2023-04-25T10:26:11;14.50;99.90
1447;DHT22;717;51.522;7.266;2023-04-25T10:28:55;14.50;99.90
1447;DHT22;717;51.522;7.266;2023-04-25T10:31:27;14.50;99.90
1447;DHT22;717;51.522;7.266;2023-04-25T10:33:56;14.50;99.90
1447;DHT22;717;51.522;7.266;2023-04-25T10:36:24;14.50;99.90
1447;DHT22;717;51.522;7.266;2023-04-25T10:38:54;14.50;99.90
1447;DHT22;717;51.522;7.266;2023-04-25T10:41:23;14.50;99.90
1447;DHT22;717;51.522;7.266;2023-04-25T10:43:59;14.40;99.90
1447;DHT22;717;51.522;7.266;2023-04-25T10:46:33;14.30;99.90
1447;DHT22;717;51.522;7.266;2023-04-25T10:49:02;14.30;99.90
1447;DHT22;717;51.522;7.266;2023-04-25T10:51:32;14.20;99.90
1447;DHT22;717;51.522;7.266;2023-04-25T10:54:02;14.10;99.90
1447;DHT22;717;51.522;7.266;2023-04-25T10:56:32;14.00;99.90
1447;DHT22;717;51.522;7.266;2023-04-25T10:59:05;13.80;99.90
1447;DHT22;717;51.522;7.266;2023-04-25T11:01:39;13.60;99.90
1447;DHT22;717;51.522;7.266;2023-04-25T11:04:22;13.50;99.90
1447;DHT22;717;51.522;7.266;2023-04-25T11:07:00;13.30;99.90
1447;DHT22;717;51.522;7.266;2023-04-25T11:09:32;13.10;99.90
1447;DHT22;717;51.522;7.266;2023-04-25T11:12:01;13.00;99.90
1447;DHT22;717;51.522;7.266;2023-04-25T11:14:30;12.90;99.90
1447;DHT22;717;51.522;7.266;2023-04-25T11:17:01;12.90;99.90
1447;DHT22;717;51.522;7.266;2023-04-25T11:19:31;13.00;99.90
1447;DHT22;717;51.522;7.266;2023-04-25T11:22:00;12.90;99.90
1447;DHT22;717;51.522;7.266;2023-04-25T11:24:30;12.80;99.90
1447;DHT22;717;51.522;7.266;2023-04-25T11:26:59;12.90;99.90
1447;DHT22;717;51.522;7.266;2023-04-25T11:29:29;13.00;99.90
1447;DHT22;717;51.522;7.266;2023-04-25T11:32:01;13.00;99.90
1447;DHT22;717;51.522;7.266;2023-04-25T11:34:30;13.10;99.90
1447;DHT22;717;51.522;7.266;2023-04-25T11:37:00;13.10;99.90
1447;DHT22;717;51.522;7.266;2023-04-25T11:39:30;13.20;99.90
1447;DHT22;717;51.522;7.266;2023-04-25T11:41:58;13.30;99.90
1447;DHT22;717;51.522;7.266;2023-04-25T11:44:28;13.40;99.90
1447;DHT22;717;51.522;7.266;2023-04-25T11:46:56;13.50;99.90
1447;DHT22;717;51.522;7.266;2023-04-25T11:49:30;13.50;99.90
1447;DHT22;717;51.522;7.266;2023-04-25T11:51:59;13.60;99.90
1447;DHT22;717;51.522;7.266;2023-04-25T11:54:27;13.60;99.90
1447;DHT22;717;51.522;7.266;2023-04-25T11:56:56;13.70;99.90
1447;DHT22;717;51.522;7.266;2023-04-25T11:59:25;13.90;99.90
1447;DHT22;717;51.522;7.266;2023-04-25T12:01:54;14.10;99.90
1447;DHT22;717;51.522;7.266;2023-04-25T12:04:24;14.30;99.90
1447;DHT22;717;51.522;7.266;2023-04-25T12:06:55;14.50;99.90
1447;DHT22;717;51.522;7.266;2023-04-25T12:09:29;14.70;99.90
1447;DHT22;717;51.522;7.266;2023-04-25T12:11:58;14.90;99.50
1447;DHT22;717;51.522;7.266;2023-04-25T12:14:29;15.00;99.00
1447;DHT22;717;51.522;7.266;2023-04-25T12:16:59;15.20;98.70
1447;DHT22;717;51.522;7.266;2023-04-25T12:19:32;15.30;98.90
1447;DHT22;717;51.522;7.266;2023-04-25T12:22:19;15.40;98.40
1447;DHT22;717;51.522;7.266;2023-04-25T12:24:47;15.60;98.70
1447;DHT22;717;51.522;7.266;2023-04-25T12:27:18;15.80;98.90
1447;DHT22;717;51.522;7.266;2023-04-25T12:29:53;15.90;98.90
1447;DHT22;717;51.522;7.266;2023-04-25T12:32:22;16.10;98.30
1447;DHT22;717;51.522;7.266;2023-04-25T12:34:51;16.10;98.10
1447;DHT22;717;51.522;7.266;2023-04-25T12:37:23;16.10;98.00
1447;DHT22;717;51.522;7.266;2023-04-25T12:39:51;16.00;97.60
1447;DHT22;717;51.522;7.266;2023-04-25T12:42:20;16.00;97.60
1447;DHT22;717;51.522;7.266;2023-04-25T12:44:48;16.00;97.50
1447;DHT22;717;51.522;7.266;2023-04-25T12:47:17;15.80;97.40
1447;DHT22;717;51.522;7.266;2023-04-25T12:49:46;15.80;97.50
1447;DHT22;717;51.522;7.266;2023-04-25T12:52:14;15.70;97.50
1447;DHT22;717;51.522;7.266;2023-04-25T12:54:46;15.50;97.30
1447;DHT22;717;51.522;7.266;2023-04-25T12:57:14;15.60;97.30
1447;DHT22;717;51.522;7.266;2023-04-25T12:59:42;15.50;97.10
1447;DHT22;717;51.522;7.266;2023-04-25T13:02:11;15.50;97.10
1447;DHT22;717;51.522;7.266;2023-04-25T13:04:40;15.50;96.90
1447;DHT22;717;51.522;7.266;2023-04-25T13:07:08;15.40;96.50
1447;DHT22;717;51.522;7.266;2023-04-25T13:09:37;15.30;96.50
1447;DHT22;717;51.522;7.266;2023-04-25T13:12:08;15.30;96.40
1447;DHT22;717;51.522;7.266;2023-04-25T13:14:36;15.20;96.30
1447;DHT22;717;51.522;7.266;2023-04-25T13:17:05;15.30;96.40
1447;DHT22;717;51.522;7.266;2023-04-25T13:19:33;15.20;96.20
1447;DHT22;717;51.522;7.266;2023-04-25T13:22:02;15.20;96.60
1447;DHT22;717;51.522;7.266;2023-04-25T13:24:30;15.30;96.60
1447;DHT22;717;51.522;7.266;2023-04-25T13:26:59;15.30;96.50
1447;DHT22;717;51.522;7.266;2023-04-25T13:29:30;15.40;96.30
1447;DHT22;717;51.522;7.266;2023-04-25T13:32:01;15.40;96.00
1447;DHT22;717;51.522;7.266;2023-04-25T13:34:29;15.40;95.90
1447;DHT22;717;51.522;7.266;2023-04-25T13:36:58;15.30;95.60
1447;DHT22;717;51.522;7.266;2023-04-25T13:39:26;15.30;95.80
1447;DHT22;717;51.522;7.266;2023-04-25T13:41:55;15.20;95.80
1447;DHT22;717;51.522;7.266;2023-04-25T13:44:24;15.20;96.20
1447;DHT22;717;51.522;7.266;2023-04-25T13:46:56;15.20;96.40
1447;DHT22;717;51.522;7.266;2023-04-25T13:49:26;15.10;96.90
1447;DHT22;717;51.522;7.266;2023-04-25T13:51:54;15.10;97.30
1447;DHT22;717;51.522;7.266;2023-04-25T13:54:23;15.10;97.30
1447;DHT22;717;51.522;7.266;2023-04-25T13:56:51;15.10;97.50
1447;DHT22;717;51.522;7.266;2023-04-25T13:59:24;15.10;97.40
1447;DHT22;717;51.522;7.266;2023-04-25T14:01:55;15.00;97.80
1447;DHT22;717;51.522;7.266;2023-04-25T14:04:23;15.00;97.60
1447;DHT22;717;51.522;7.266;2023-04-25T14:06:53;14.90;97.60
1447;DHT22;717;51.522;7.266;2023-04-25T14:09:21;14.90;97.80
1447;DHT22;717;51.522;7.266;2023-04-25T14:11:51;14.90;97.60
1447;DHT22;717;51.522;7.266;2023-04-25T14:14:20;14.90;97.80
1447;DHT22;717;51.522;7.266;2023-04-25T14:16:49;14.90;97.70
1447;DHT22;717;51.522;7.266;2023-04-25T14:19:22;14.90;98.10
1447;DHT22;717;51.522;7.266;2023-04-25T14:21:50;15.10;98.30
1447;DHT22;717;51.522;7.266;2023-04-25T14:24:19;15.20;97.90
1447;DHT22;717;51.522;7.266;2023-04-25T14:26:47;15.40;97.60
1447;DHT22;717;51.522;7.266;2023-04-25T14:29:16;15.60;97.10
1447;DHT22;717;51.522;7.266;2023-04-25T14:31:44;15.70;96.80
1447;DHT22;717;51.522;7.266;2023-04-25T14:34:13;15.90;96.70
1447;DHT22;717;51.522;7.266;2023-04-25T14:36:44;16.00;97.70
1447;DHT22;717;51.522;7.266;2023-04-25T14:39:13;16.20;98.90
1447;DHT22;717;51.522;7.266;2023-04-25T14:41:42;16.30;98.70
1447;DHT22;717;51.522;7.266;2023-04-25T14:44:10;16.40;98.90
1447;DHT22;717;51.522;7.266;2023-04-25T14:46:39;16.40;99.20
1447;DHT22;717;51.522;7.266;2023-04-25T14:49:08;16.40;99.00
1447;DHT22;717;51.522;7.266;2023-04-25T14:51:36;16.40;98.60
1447;DHT22;717;51.522;7.266;2023-04-25T14:54:07;16.30;98.40
1447;DHT22;717;51.522;7.266;2023-04-25T14:56:37;16.20;98.30
1447;DHT22;717;51.522;7.266;2023-04-25T14:59:06;16.10;97.80
1447;DHT22;717;51.522;7.266;2023-04-25T15:01:34;15.90;97.70
1447;DHT22;717;51.522;7.266;2023-04-25T15:04:03;15.70;97.70
1447;DHT22;717;51.522;7.266;2023-04-25T15:06:31;15.60;97.90
1447;DHT22;717;51.522;7.266;2023-04-25T15:09:00;15.50;97.30
1447;DHT22;717;51.522;7.266;2023-04-25T15:11:31;15.30;97.50
1447;DHT22;717;51.522;7.266;2023-04-25T15:14:00;15.20;97.60
1447;DHT22;717;51.522;7.266;2023-04-25T15:16:28;15.10;99.30
1447;DHT22;717;51.522;7.266;2023-04-25T15:18:57;14.70;99.90
1447;DHT22;717;51.522;7.266;2023-04-25T15:21:29;14.20;99.90
1447;DHT22;717;51.522;7.266;2023-04-25T15:23:58;13.90;99.90
1447;DHT22;717;51.522;7.266;2023-04-25T15:26:27;13.60;99.90
1447;DHT22;717;51.522;7.266;2023-04-25T15:28:58;13.40;99.90
1447;DHT22;717;51.522;7.266;2023-04-25T15:31:29;13.30;99.90
1447;DHT22;717;51.522;7.266;2023-04-25T15:33:57;13.10;99.90
1447;DHT22;717;51.522;7.266;2023-04-25T15:36:25;12.90;99.90
1447;DHT22;717;51.522;7.266;2023-04-25T15:38:54;12.80;99.90
1447;DHT22;717;51.522;7.266;2023-04-25T15:41:23;12.70;99.90
1447;DHT22;717;51.522;7.266;2023-04-25T15:43:52;12.70;99.90
1447;DHT22;717;51.522;7.266;2023-04-25T15:46:24;12.60;99.90
1447;DHT22;717;51.522;7.266;2023-04-25T15:48:52;12.50;99.90
1447;DHT22;717;51.522;7.266;2023-04-25T15:51:21;12.50;99.90
1447;DHT22;717;51.522;7.266;2023-04-25T15:53:50;12.60;99.90
1447;DHT22;717;51.522;7.266;2023-04-25T15:56:18;12.50;99.90
1447;DHT22;717;51.522;7.266;2023-04-25T15:58:47;12.40;99.90
1447;DHT22;717;51.522;7.266;2023-04-25T16:01:16;12.30;99.90
1447;DHT22;717;51.522;7.266;2023-04-25T16:03:51;12.30;99.90
1447;DHT22;717;51.522;7.266;2023-04-25T16:06:22;12.20;99.90
1447;DHT22;717;51.522;7.266;2023-04-25T16:08:50;12.20;99.90
1447;DHT22;717;51.522;7.266;2023-04-25T16:11:19;12.10;99.90
1447;DHT22;717;51.522;7.266;2023-04-25T16:13:48;12.10;99.90
1447;DHT22;717;51.522;7.266;2023-04-25T16:16:17;12.00;99.90
1447;DHT22;717;51.522;7.266;2023-04-25T16:18:46;11.90;99.90
1447;DHT22;717;51.522;7.266;2023-04-25T16:21:17;11.70;99.90
1447;DHT22;717;51.522;7.266;2023-04-25T16:23:45;11.70;99.90
1447;DHT22;717;51.522;7.266;2023-04-25T16:26:14;11.60;99.90
1447;DHT22;717;51.522;7.266;2023-04-25T16:28:42;11.60;99.90
1447;DHT22;717;51.522;7.266;2023-04-25T16:31:11;11.50;99.90